Time;durP1;ratioP1;P1;durP2;ratioP2;P2;SDS_P1;SDS_P2;PMS_P1;PMS_P2;Temp;Humidity;BMP_temperature;BMP_pressure;BME280_temperature;BME280_humidity;BME280_pressure;Samples;Min_cycle;Max_cycle;Signal;HPM_P1;HPM_P2
2022/07/01 00:00:28;;;;;;;6.90;1.60;;;16.40;85.60;;;;;;4129148;28;113355;-59
2022/07/01 00:02:32;;;;;;;4.55;1.50;;;16.30;85.60;;;;;;4128217;28;115644;-59
2022/07/01 00:04:35;;;;;;;9.00;2.40;;;16.30;85.50;;;;;;4128295;28;113377;-59
2022/07/01 00:06:57;;;;;;;7.68;2.25;;;16.30;85.50;;;;;;4128696;28;113291;-60
2022/07/01 00:09:04;;;;;;;3.72;1.27;;;16.30;85.80;;;;;;4129354;28;114703;-60
2022/07/01 00:11:07;;;;;;;8.48;1.90;;;16.30;85.60;;;;;;4127630;28;113851;-60
2022/07/01 00:13:11;;;;;;;4.32;1.50;;;16.30;85.70;;;;;;4129326;28;113559;-59
2022/07/01 00:15:14;;;;;;;6.15;1.73;;;16.30;85.80;;;;;;4129930;28;113825;-58
2022/07/01 00:17:17;;;;;;;6.60;1.80;;;16.30;85.80;;;;;;4128992;28;113492;-59
2022/07/01 00:19:21;;;;;;;3.55;1.48;;;16.30;86.10;;;;;;4129503;28;113203;-59
2022/07/01 00:21:24;;;;;;;4.13;1.60;;;16.30;85.90;;;;;;4129528;28;113307;-60
2022/07/01 00:23:27;;;;;;;7.10;2.15;;;16.30;86.00;;;;;;4129779;28;114861;-59
2022/07/01 00:25:31;;;;;;;4.65;1.80;;;16.30;86.10;;;;;;4128246;28;115076;-60
2022/07/01 00:27:38;;;;;;;9.45;2.50;;;16.30;86.20;;;;;;4130061;28;113313;-60
2022/07/01 00:29:41;;;;;;;7.40;1.33;;;16.30;86.20;;;;;;4130316;28;113363;-60
2022/07/01 00:31:44;;;;;;;9.35;2.17;;;16.30;86.10;;;;;;4130229;28;113508;-60
2022/07/01 00:33:47;;;;;;;6.32;1.70;;;16.30;86.10;;;;;;4131877;28;113277;-59
2022/07/01 00:35:52;;;;;;;3.35;1.20;;;16.30;86.10;;;;;;4130464;28;114322;-59
2022/07/01 00:37:55;;;;;;;5.32;1.85;;;16.20;86.00;;;;;;4131277;28;113639;-59
2022/07/01 00:39:58;;;;;;;6.45;1.70;;;16.30;86.10;;;;;;4131198;28;113590;-59
2022/07/01 00:42:04;;;;;;;5.78;1.73;;;16.30;86.10;;;;;;4131196;28;113939;-60
2022/07/01 00:44:15;;;;;;;5.85;1.50;;;16.30;86.20;;;;;;4130818;28;113865;-58
2022/07/01 00:46:19;;;;;;;6.85;1.40;;;16.30;86.20;;;;;;4131248;28;114163;-59
2022/07/01 00:48:25;;;;;;;4.85;1.55;;;16.30;86.10;;;;;;4132670;28;113257;-63
2022/07/01 00:50:28;;;;;;;4.22;1.02;;;16.30;86.60;;;;;;4130365;28;113379;-60
2022/07/01 00:52:31;;;;;;;4.22;1.20;;;16.30;86.10;;;;;;4132526;28;114554;-60
2022/07/01 00:54:37;;;;;;;7.72;1.80;;;16.30;86.10;;;;;;4132250;28;113708;-60
2022/07/01 00:56:40;;;;;;;5.95;1.88;;;16.30;86.00;;;;;;4131141;28;113307;-60
2022/07/01 00:58:46;;;;;;;3.58;1.27;;;16.30;86.20;;;;;;4132067;28;113187;-60
2022/07/01 01:00:49;;;;;;;4.50;1.95;;;16.30;86.20;;;;;;4131145;28;113773;-60
2022/07/01 01:02:53;;;;;;;3.25;1.38;;;16.30;86.20;;;;;;4131632;28;113249;-59
2022/07/01 01:04:56;;;;;;;9.32;1.77;;;16.30;86.20;;;;;;4130431;28;113292;-60
2022/07/01 01:07:01;;;;;;;5.72;1.30;;;16.30;86.10;;;;;;4131602;28;114179;-60
2022/07/01 01:09:04;;;;;;;3.58;1.33;;;16.30;86.20;;;;;;4129699;28;113812;-60
2022/07/01 01:11:08;;;;;;;3.67;1.98;;;16.20;86.00;;;;;;4131571;28;113466;-60
2022/07/01 01:13:12;;;;;;;7.10;2.28;;;16.20;86.20;;;;;;4131528;28;114170;-60
2022/07/01 01:15:21;;;;;;;3.63;1.10;;;16.20;86.10;;;;;;4129397;28;113340;-60
2022/07/01 01:17:24;;;;;;;6.50;1.83;;;16.20;86.10;;;;;;4131942;28;113173;-60
2022/07/01 01:19:27;;;;;;;4.65;1.73;;;16.20;86.00;;;;;;4132694;28;114320;-60
2022/07/01 01:21:32;;;;;;;3.25;1.33;;;16.20;86.10;;;;;;4132359;28;114024;-61
2022/07/01 01:23:35;;;;;;;3.05;1.52;;;16.20;86.00;;;;;;4129948;28;113441;-60
2022/07/01 01:25:38;;;;;;;3.75;1.73;;;16.20;86.10;;;;;;4131342;28;113310;-60
2022/07/01 01:27:42;;;;;;;8.25;1.75;;;16.30;86.10;;;;;;4130764;28;113355;-60
2022/07/01 01:29:45;;;;;;;4.75;2.10;;;16.30;86.00;;;;;;4131081;28;113805;-60
2022/07/01 01:31:48;;;;;;;3.95;1.90;;;16.30;85.80;;;;;;4131923;28;114154;-60
2022/07/01 01:33:51;;;;;;;3.72;1.70;;;16.30;85.90;;;;;;4128441;28;113688;-60
2022/07/01 01:35:54;;;;;;;5.50;1.88;;;16.20;85.80;;;;;;4131178;28;113336;-60
2022/07/01 01:37:59;;;;;;;5.82;1.90;;;16.20;85.80;;;;;;4129962;28;113365;-60
2022/07/01 01:40:02;;;;;;;3.80;1.92;;;16.20;85.80;;;;;;4130752;28;113381;-60
2022/07/01 01:42:06;;;;;;;13.20;2.42;;;16.20;85.70;;;;;;4128407;28;113443;-60
2022/07/01 01:44:09;;;;;;;5.07;2.17;;;16.20;85.70;;;;;;4132236;28;113491;-60
2022/07/01 01:46:12;;;;;;;2.83;1.85;;;16.20;85.70;;;;;;4131201;28;115118;-60
2022/07/01 01:48:15;;;;;;;3.92;1.98;;;16.20;85.80;;;;;;4131343;28;113288;-61
2022/07/01 01:50:19;;;;;;;6.18;2.35;;;16.10;85.60;;;;;;4131316;28;113740;-60
2022/07/01 01:52:22;;;;;;;4.05;1.83;;;16.10;85.50;;;;;;4130545;28;113219;-60
2022/07/01 01:54:27;;;;;;;5.63;2.03;;;16.10;85.50;;;;;;4131359;28;113264;-60
2022/07/01 01:56:31;;;;;;;8.13;2.47;;;16.10;85.50;;;;;;4129513;28;115115;-60
2022/07/01 01:58:34;;;;;;;5.00;2.60;;;16.10;85.60;;;;;;4130955;28;113406;-59
2022/07/01 02:00:37;;;;;;;5.82;2.47;;;16.10;85.50;;;;;;4131223;28;114052;-59
2022/07/01 02:02:40;;;;;;;13.30;2.50;;;16.10;85.50;;;;;;4129206;28;113429;-59
2022/07/01 02:04:43;;;;;;;4.70;2.30;;;16.10;85.60;;;;;;4129914;28;114019;-60
2022/07/01 02:06:47;;;;;;;4.63;2.63;;;16.10;85.50;;;;;;4131478;28;113950;-59
2022/07/01 02:08:50;;;;;;;6.00;2.47;;;16.00;85.50;;;;;;4130819;28;113539;-60
2022/07/01 02:10:56;;;;;;;4.20;2.28;;;16.00;85.60;;;;;;4130493;28;113376;-60
2022/07/01 02:13:04;;;;;;;6.07;2.65;;;16.00;85.70;;;;;;4131201;28;113309;-60
2022/07/01 02:15:09;;;;;;;5.53;2.70;;;15.90;85.70;;;;;;4131383;28;113206;-60
2022/07/01 02:17:12;;;;;;;5.45;2.60;;;15.90;85.70;;;;;;4130828;28;113380;-60
2022/07/01 02:19:15;;;;;;;6.40;2.53;;;15.90;85.70;;;;;;4130340;28;114812;-60
2022/07/01 02:21:18;;;;;;;3.88;2.53;;;15.90;85.80;;;;;;4131465;28;113317;-60
2022/07/01 02:23:21;;;;;;;3.70;2.40;;;15.90;85.90;;;;;;4131071;28;113272;-60
2022/07/01 02:25:25;;;;;;;4.18;2.40;;;15.90;85.90;;;;;;4130253;28;113298;-60
2022/07/01 02:27:32;;;;;;;5.60;2.75;;;15.90;85.90;;;;;;4131586;28;113269;-60
2022/07/01 02:29:35;;;;;;;7.55;3.00;;;15.90;86.20;;;;;;4129097;28;113264;-59
2022/07/01 02:31:38;;;;;;;7.50;3.25;;;15.90;86.00;;;;;;4131178;28;113289;-60
2022/07/01 02:33:41;;;;;;;6.78;3.38;;;15.90;86.20;;;;;;4129806;28;113416;-59
2022/07/01 02:35:44;;;;;;;6.43;3.20;;;15.90;86.20;;;;;;4128021;28;113170;-60
2022/07/01 02:37:51;;;;;;;8.27;3.60;;;15.90;86.20;;;;;;4130280;28;113298;-60
2022/07/01 02:39:54;;;;;;;5.70;3.60;;;15.90;86.20;;;;;;4129440;28;114180;-60
2022/07/01 02:44:20;;;;;;;9.10;3.70;;;15.90;86.30;;;;;;4131439;28;113775;-59
2022/07/01 02:46:24;;;;;;;5.63;3.83;;;15.90;86.40;;;;;;4130450;28;114483;-59
2022/07/01 02:48:27;;;;;;;5.00;3.65;;;15.80;86.40;;;;;;4131553;28;113451;-58
2022/07/01 02:50:30;;;;;;;10.10;4.07;;;15.80;86.50;;;;;;4130600;28;113290;-60
2022/07/01 02:52:34;;;;;;;6.82;3.47;;;15.80;86.40;;;;;;4128619;28;113879;-59
2022/07/01 02:54:37;;;;;;;7.38;4.03;;;15.80;86.60;;;;;;4127469;28;114174;-59
2022/07/01 02:56:41;;;;;;;7.07;4.07;;;15.80;86.60;;;;;;4130660;28;113904;-59
2022/07/01 02:58:44;;;;;;;8.07;4.10;;;15.70;86.60;;;;;;4129746;28;113413;-60
2022/07/01 03:00:52;;;;;;;7.95;3.83;;;15.70;86.60;;;;;;4128277;28;113547;-60
2022/07/01 03:02:55;;;;;;;5.88;3.97;;;15.70;86.70;;;;;;4129616;28;113430;-60
2022/07/01 03:04:59;;;;;;;6.15;3.65;;;15.70;86.80;;;;;;4128839;28;113313;-60
2022/07/01 03:07:02;;;;;;;9.55;3.60;;;15.70;86.70;;;;;;4128973;28;113995;-60
2022/07/01 03:09:05;;;;;;;7.93;4.63;;;15.70;86.70;;;;;;4129217;28;113418;-60
2022/07/01 03:11:09;;;;;;;8.20;4.18;;;15.70;86.70;;;;;;4130402;28;113231;-60
2022/07/01 03:13:19;;;;;;;6.22;3.72;;;15.70;86.80;;;;;;4131307;28;113370;-61
2022/07/01 03:15:22;;;;;;;8.25;4.30;;;15.70;86.70;;;;;;4129206;28;114123;-60
2022/07/01 03:17:27;;;;;;;6.70;3.90;;;15.60;86.70;;;;;;4129793;28;113228;-60
2022/07/01 03:19:30;;;;;;;4.45;3.50;;;15.60;86.70;;;;;;4129193;28;113340;-60
2022/07/01 03:21:34;;;;;;;8.18;4.13;;;15.60;86.60;;;;;;4130793;28;115685;-60
2022/07/01 03:23:37;;;;;;;6.55;3.45;;;15.60;86.60;;;;;;4130778;28;113454;-60
2022/07/01 03:25:40;;;;;;;7.00;3.80;;;15.60;86.60;;;;;;4129610;28;113354;-60
2022/07/01 03:27:47;;;;;;;8.52;3.72;;;15.60;86.70;;;;;;4129511;28;113428;-60
2022/07/01 03:29:51;;;;;;;6.80;4.63;;;15.60;86.70;;;;;;4127911;28;113348;-59
2022/07/01 03:31:54;;;;;;;7.85;4.50;;;15.60;86.80;;;;;;4129970;28;114140;-59
2022/07/01 03:33:58;;;;;;;7.47;4.57;;;15.60;86.80;;;;;;4128952;28;114356;-60
2022/07/01 03:36:01;;;;;;;8.77;4.85;;;15.60;86.80;;;;;;4128323;28;113433;-60
2022/07/01 03:38:05;;;;;;;7.80;4.43;;;15.60;86.70;;;;;;4128705;28;114233;-59
2022/07/01 03:40:10;;;;;;;8.30;4.82;;;15.60;86.60;;;;;;4130823;28;113902;-60
2022/07/01 03:42:13;;;;;;;9.13;5.43;;;15.70;86.60;;;;;;4128638;28;115390;-60
2022/07/01 03:44:16;;;;;;;6.95;4.82;;;15.60;86.60;;;;;;4130081;28;113449;-60
2022/07/01 03:46:22;;;;;;;9.02;5.22;;;15.70;86.60;;;;;;4129135;28;113204;-60
2022/07/01 03:48:25;;;;;;;11.00;5.40;;;15.70;86.60;;;;;;4128930;28;113872;-60
2022/07/01 03:50:30;;;;;;;11.65;5.20;;;15.70;86.40;;;;;;4129835;28;113425;-60
2022/07/01 03:52:33;;;;;;;8.98;5.78;;;15.70;86.40;;;;;;4128921;28;114814;-60
2022/07/01 03:54:38;;;;;;;12.93;4.97;;;15.70;86.40;;;;;;4128377;28;113770;-59
2022/07/01 03:56:42;;;;;;;10.48;5.68;;;15.70;86.30;;;;;;4129286;28;114108;-60
2022/07/01 03:58:47;;;;;;;9.55;5.10;;;15.70;86.30;;;;;;4129291;28;113953;-60
2022/07/01 04:00:53;;;;;;;7.63;4.68;;;15.70;86.30;;;;;;4129047;28;113372;-60
2022/07/01 04:02:57;;;;;;;7.32;5.32;;;15.70;86.40;;;;;;4128224;28;114121;-59
2022/07/01 04:05:00;;;;;;;9.88;5.05;;;15.70;86.30;;;;;;4129147;28;113870;-60
2022/07/01 04:07:06;;;;;;;10.00;6.20;;;15.70;86.20;;;;;;4126985;28;113397;-60
2022/07/01 04:09:10;;;;;;;10.82;5.35;;;15.70;86.20;;;;;;4130597;28;113727;-60
2022/07/01 04:11:13;;;;;;;12.95;5.70;;;15.70;86.20;;;;;;4128502;28;113498;-60
2022/07/01 04:13:16;;;;;;;12.68;6.13;;;15.70;86.20;;;;;;4129598;28;113898;-59
2022/07/01 04:15:35;;;;;;;9.25;4.68;;;15.70;86.10;;;;;;4129464;28;113715;-60
2022/07/01 04:17:38;;;;;;;17.55;5.10;;;15.70;86.10;;;;;;4129470;28;113483;-59
2022/07/01 04:19:41;;;;;;;6.40;4.38;;;15.70;86.10;;;;;;4130071;28;113295;-60
2022/07/01 04:24:08;;;;;;;8.32;4.20;;;15.80;86.20;;;;;;4128868;28;113509;-59
2022/07/01 04:26:13;;;;;;;10.50;4.65;;;15.80;86.10;;;;;;4128868;28;115291;-59
2022/07/01 04:28:36;;;;;;;11.02;5.10;;;15.80;86.00;;;;;;4129093;28;113339;-60
2022/07/01 04:30:39;;;;;;;7.78;4.38;;;15.80;86.00;;;;;;4121006;28;115493;-59
2022/07/01 04:32:43;;;;;;;12.88;4.80;;;15.80;86.00;;;;;;4129416;28;114171;-59
2022/07/01 04:34:46;;;;;;;9.13;4.75;;;15.80;86.00;;;;;;4127858;28;114234;-58
2022/07/01 04:36:49;;;;;;;8.73;4.75;;;15.80;85.80;;;;;;4129105;28;115269;-60
2022/07/01 04:38:52;;;;;;;9.30;4.60;;;15.80;85.80;;;;;;4128425;28;114123;-60
2022/07/01 04:43:17;;;;;;;10.93;4.35;;;15.80;85.70;;;;;;4129400;28;113305;-60
2022/07/01 04:45:20;;;;;;;10.98;4.40;;;15.80;85.60;;;;;;4129466;28;113482;-60
2022/07/01 04:47:23;;;;;;;13.20;4.50;;;15.80;86.10;;;;;;4129153;28;113433;-60
2022/07/01 04:49:27;;;;;;;8.30;3.85;;;15.80;85.50;;;;;;4129236;28;113446;-60
2022/07/01 04:51:30;;;;;;;7.40;4.00;;;15.80;85.50;;;;;;4131854;28;113716;-60
2022/07/01 04:53:34;;;;;;;7.50;3.90;;;15.90;85.60;;;;;;4122960;28;115096;-60
2022/07/01 04:55:37;;;;;;;9.40;4.25;;;15.90;85.50;;;;;;4103969;28;114157;-60
2022/07/01 04:57:41;;;;;;;8.35;2.88;;;15.90;85.50;;;;;;4120588;28;112799;-59
2022/07/01 04:59:44;;;;;;;6.85;3.58;;;15.90;85.40;;;;;;4128844;28;114165;-59
2022/07/01 05:01:49;;;;;;;5.55;2.28;;;15.90;85.30;;;;;;4128599;28;114164;-60
2022/07/01 05:03:52;;;;;;;6.82;2.97;;;15.90;85.10;;;;;;4137274;28;114646;-59
2022/07/01 05:05:56;;;;;;;7.40;3.08;;;15.80;85.00;;;;;;4112965;28;114239;-59
2022/07/01 05:07:59;;;;;;;8.77;2.50;;;15.80;85.00;;;;;;4128369;28;113429;-59
2022/07/01 05:10:02;;;;;;;10.80;2.90;;;15.90;84.90;;;;;;4132926;28;115319;-60
2022/07/01 05:12:06;;;;;;;7.80;2.58;;;15.90;85.30;;;;;;4113140;28;113588;-60
2022/07/01 05:14:10;;;;;;;7.95;2.13;;;15.90;84.70;;;;;;4095070;28;112992;-60
2022/07/01 05:16:14;;;;;;;7.25;2.30;;;15.90;84.70;;;;;;4107757;28;114121;-60
2022/07/01 05:23:10;;;;;;;14.68;3.22;;;16.00;84.80;;;;;;4129262;28;114672;-61
2022/07/01 05:25:13;;;;;;;8.52;2.50;;;16.00;84.60;;;;;;4125573;28;114206;-60
2022/07/01 05:27:16;;;;;;;6.78;2.10;;;16.00;84.40;;;;;;4136022;28;114752;-61
2022/07/01 05:29:20;;;;;;;8.43;2.60;;;16.00;84.20;;;;;;4129068;28;114322;-60
2022/07/01 05:31:24;;;;;;;9.68;2.42;;;16.00;84.20;;;;;;4132451;28;114979;-61
2022/07/01 05:33:27;;;;;;;7.57;2.25;;;16.00;84.10;;;;;;4123087;28;114256;-60
2022/07/01 05:35:30;;;;;;;7.22;1.90;;;16.00;84.00;;;;;;4123455;28;114294;-60
2022/07/01 05:37:33;;;;;;;6.15;2.22;;;16.00;83.90;;;;;;4126762;28;113376;-61
2022/07/01 05:39:36;;;;;;;6.68;2.55;;;16.00;83.90;;;;;;4130413;28;114193;-61
2022/07/01 05:41:47;;;;;;;;;;;16.10;84.00;;;;;;4119695;28;114491;-60
2022/07/01 05:43:50;;;;;;;8.30;2.67;;;16.10;84.20;;;;;;4110818;28;114448;-61
2022/07/01 05:45:54;;;;;;;13.10;3.10;;;16.10;83.90;;;;;;4089424;28;114385;-61
2022/07/01 05:47:58;;;;;;;10.65;2.85;;;16.10;83.70;;;;;;4087462;28;114774;-60
2022/07/01 05:50:01;;;;;;;6.63;2.83;;;16.20;83.70;;;;;;4104051;28;113213;-59
2022/07/01 05:52:05;;;;;;;9.15;2.60;;;16.20;83.70;;;;;;4110747;28;114155;-59
2022/07/01 05:54:08;;;;;;;8.15;2.88;;;16.20;83.70;;;;;;4097270;28;113157;-59
2022/07/01 05:56:11;;;;;;;6.68;2.80;;;16.30;83.90;;;;;;4094426;28;114402;-60
2022/07/01 05:58:14;;;;;;;6.32;2.60;;;16.30;83.90;;;;;;4090403;28;114235;-59
2022/07/01 06:00:18;;;;;;;7.05;2.67;;;16.40;83.90;;;;;;4088618;28;114212;-59
2022/07/01 06:02:22;;;;;;;15.55;3.53;;;16.40;83.70;;;;;;4086811;28;114441;-60
2022/07/01 06:04:26;;;;;;;12.15;3.78;;;16.50;83.80;;;;;;4097207;28;113368;-60
2022/07/01 06:06:29;;;;;;;10.30;3.80;;;16.50;83.80;;;;;;4089819;28;114010;-60
2022/07/01 06:08:33;;;;;;;13.57;3.92;;;16.60;83.80;;;;;;4091022;28;114060;-60
2022/07/01 06:10:36;;;;;;;9.00;3.65;;;16.60;83.60;;;;;;4092772;28;113192;-60
2022/07/01 06:12:39;;;;;;;11.68;5.18;;;16.60;83.60;;;;;;4090090;28;113120;-60
2022/07/01 06:14:42;;;;;;;10.65;4.57;;;16.70;83.50;;;;;;4093574;28;113774;-62
2022/07/01 06:16:46;;;;;;;10.68;4.78;;;16.70;83.50;;;;;;4094939;28;114082;-60
2022/07/01 06:18:50;;;;;;;20.17;6.25;;;16.70;83.50;;;;;;4094144;28;114351;-60
2022/07/01 06:20:53;;;;;;;13.80;6.43;;;16.70;83.40;;;;;;4090868;28;114251;-60
2022/07/01 06:22:57;;;;;;;17.05;6.88;;;16.80;83.40;;;;;;4091824;28;114035;-60
2022/07/01 06:25:00;;;;;;;10.85;6.13;;;16.80;83.50;;;;;;4093468;28;114079;-60
2022/07/01 06:27:05;;;;;;;16.55;5.93;;;16.90;83.50;;;;;;4090426;28;113239;-60
2022/07/01 06:29:08;;;;;;;14.00;6.95;;;16.90;83.30;;;;;;4095281;28;114590;-60
2022/07/01 06:31:11;;;;;;;15.40;6.43;;;16.90;83.30;;;;;;4092032;28;113146;-60
2022/07/01 06:33:14;;;;;;;13.13;6.32;;;17.00;83.30;;;;;;4089651;28;114049;-60
2022/07/01 06:35:19;;;;;;;19.10;8.23;;;17.10;83.40;;;;;;4086888;28;114333;-58
2022/07/01 06:37:25;;;;;;;15.88;7.45;;;17.20;83.30;;;;;;4090653;28;113473;-60
2022/07/01 06:39:28;;;;;;;16.33;8.57;;;17.30;83.30;;;;;;4086523;28;114295;-60
2022/07/01 06:41:31;;;;;;;14.52;7.60;;;17.40;83.40;;;;;;4094958;28;113717;-60
2022/07/01 06:43:35;;;;;;;22.15;8.60;;;17.50;83.20;;;;;;4086910;28;114195;-60
2022/07/01 06:45:38;;;;;;;14.65;7.80;;;17.60;83.10;;;;;;4086568;28;114185;-60
2022/07/01 06:47:42;;;;;;;14.43;7.40;;;17.70;82.90;;;;;;4089596;28;115351;-60
2022/07/01 06:49:45;;;;;;;19.50;8.60;;;17.80;82.60;;;;;;4094153;28;113738;-60
2022/07/01 06:51:54;;;;;;;15.18;7.57;;;17.90;82.40;;;;;;4096746;28;114502;-60
2022/07/01 06:53:58;;;;;;;19.25;8.52;;;17.90;82.10;;;;;;4090875;28;113306;-60
2022/07/01 06:56:01;;;;;;;100.50;28.20;;;18.00;82.00;;;;;;4093113;28;114543;-61
2022/07/01 06:58:05;;;;;;;109.65;23.58;;;18.20;82.20;;;;;;4100305;28;113384;-60
2022/07/01 07:00:10;;;;;;;29.42;12.02;;;18.20;82.50;;;;;;4092696;28;114509;-60
2022/07/01 07:02:13;;;;;;;17.48;7.38;;;18.30;82.50;;;;;;4090655;28;114164;-60
2022/07/01 07:04:17;;;;;;;14.80;6.68;;;18.40;82.10;;;;;;4092344;28;113543;-60
2022/07/01 07:06:30;;;;;;;14.27;6.13;;;18.40;81.60;;;;;;4087619;28;114614;-60
2022/07/01 07:08:34;;;;;;;19.50;6.07;;;18.50;80.80;;;;;;4095095;28;113361;-60
2022/07/01 07:10:38;;;;;;;14.23;6.18;;;18.60;80.10;;;;;;4094584;28;113640;-60
2022/07/01 07:12:41;;;;;;;30.48;9.98;;;18.60;79.40;;;;;;4089455;28;114064;-60
2022/07/01 07:14:44;;;;;;;39.13;11.10;;;18.50;79.30;;;;;;4119261;28;114064;-59
2022/07/01 07:16:47;;;;;;;164.18;43.70;;;18.50;79.60;;;;;;4124122;28;113331;-59
2022/07/01 07:18:51;;;;;;;121.90;31.92;;;18.60;80.00;;;;;;4089941;28;113959;-59
2022/07/01 07:20:54;;;;;;;19.27;7.00;;;18.70;81.00;;;;;;4092565;28;114398;-60
2022/07/01 07:23:02;;;;;;;9.25;4.80;;;18.70;80.70;;;;;;4046829;28;115066;-59
2022/07/01 07:25:08;;;;;;;15.15;5.78;;;18.70;79.50;;;;;;4134869;28;113205;-60
2022/07/01 07:27:11;;;;;;;17.40;4.82;;;18.60;78.50;;;;;;4130199;28;114701;-60
2022/07/01 07:29:15;;;;;;;14.82;4.10;;;18.60;78.50;;;;;;4135499;28;113693;-60
2022/07/01 07:31:19;;;;;;;16.17;4.15;;;18.50;77.80;;;;;;4132091;28;113911;-61
2022/07/01 07:33:23;;;;;;;11.43;3.95;;;18.50;77.60;;;;;;4132985;28;113483;-61
2022/07/01 07:35:28;;;;;;;12.10;4.35;;;18.50;77.40;;;;;;4135531;28;113115;-61
2022/07/01 07:37:32;;;;;;;10.60;3.47;;;18.40;77.30;;;;;;4129561;28;114002;-60
2022/07/01 07:39:36;;;;;;;13.90;3.63;;;18.40;76.90;;;;;;4127143;28;113332;-60
2022/07/01 07:41:40;;;;;;;13.57;3.40;;;18.40;76.60;;;;;;4121954;28;113374;-61
2022/07/01 07:43:44;;;;;;;11.52;3.40;;;18.40;76.50;;;;;;4122656;28;114529;-60
2022/07/01 07:45:47;;;;;;;11.63;3.80;;;18.40;76.50;;;;;;4132601;28;113621;-61
2022/07/01 07:47:51;;;;;;;12.15;4.13;;;18.40;76.60;;;;;;4093203;28;113924;-61
2022/07/01 07:49:54;;;;;;;7.97;3.53;;;18.40;77.10;;;;;;4094255;28;114168;-60
2022/07/01 07:51:57;;;;;;;11.50;3.15;;;18.60;77.80;;;;;;4095674;28;113369;-60
2022/07/01 07:54:02;;;;;;;13.13;3.45;;;18.80;77.00;;;;;;4094289;28;114133;-61
2022/07/01 07:56:06;;;;;;;12.55;3.42;;;19.00;77.20;;;;;;4095882;28;113897;-61
2022/07/01 07:58:11;;;;;;;11.30;4.22;;;19.50;76.80;;;;;;4086650;28;114315;-61
2022/07/01 08:00:15;;;;;;;9.15;2.95;;;19.90;76.00;;;;;;4119117;28;114585;-60
2022/07/01 08:02:18;;;;;;;10.27;3.30;;;20.20;74.10;;;;;;4104691;28;114791;-61
2022/07/01 08:04:27;;;;;;;5.68;3.00;;;20.50;73.60;;;;;;4109667;28;114200;-61
2022/07/01 08:06:30;;;;;;;12.70;3.85;;;20.90;73.30;;;;;;4118655;28;113910;-61
2022/07/01 08:08:34;;;;;;;14.27;3.47;;;21.50;72.20;;;;;;4101115;28;114494;-61
2022/07/01 08:10:37;;;;;;;10.55;3.47;;;22.10;71.00;;;;;;4096766;28;112843;-61
2022/07/01 08:12:41;;;;;;;13.45;3.67;;;22.60;69.10;;;;;;4116703;28;114752;-61
2022/07/01 08:14:45;;;;;;;10.57;3.45;;;23.10;67.50;;;;;;4120530;28;113287;-61
2022/07/01 08:16:49;;;;;;;11.60;2.95;;;23.60;63.20;;;;;;4123281;28;113328;-61
2022/07/01 08:18:52;;;;;;;13.73;2.45;;;23.80;63.90;;;;;;4121598;28;113449;-59
2022/07/01 08:20:55;;;;;;;6.57;2.45;;;24.20;63.40;;;;;;4116446;28;113846;-59
2022/07/01 08:22:59;;;;;;;9.35;2.95;;;24.70;61.30;;;;;;4117766;28;114246;-59
2022/07/01 08:25:03;;;;;;;6.60;2.10;;;25.00;60.10;;;;;;4110469;28;113959;-59
2022/07/01 08:27:06;;;;;;;7.50;1.95;;;25.30;58.60;;;;;;4108429;28;114221;-59
2022/07/01 08:29:09;;;;;;;7.55;1.73;;;25.60;57.40;;;;;;4116392;28;114201;-59
2022/07/01 08:31:14;;;;;;;11.55;2.45;;;26.00;55.70;;;;;;4114367;28;113359;-61
2022/07/01 08:33:18;;;;;;;10.02;1.67;;;26.10;54.40;;;;;;4124668;28;113561;-59
2022/07/01 08:35:21;;;;;;;7.28;2.40;;;25.80;53.50;;;;;;4122940;28;114135;-59
2022/07/01 08:37:24;;;;;;;6.18;2.20;;;25.50;52.70;;;;;;4102748;28;114242;-59
2022/07/01 08:39:27;;;;;;;11.57;2.88;;;25.40;52.70;;;;;;4124890;28;114344;-59
2022/07/01 08:41:31;;;;;;;12.98;2.15;;;25.20;51.90;;;;;;4125784;28;113293;-59
2022/07/01 08:43:34;;;;;;;7.35;1.50;;;25.00;51.50;;;;;;4131538;28;114152;-59
2022/07/01 08:45:39;;;;;;;11.13;2.28;;;24.90;51.90;;;;;;4110053;28;113484;-59
2022/07/01 08:47:55;;;;;;;9.30;1.63;;;24.90;52.30;;;;;;4123852;28;113361;-59
2022/07/01 08:50:01;;;;;;;7.93;1.58;;;25.30;51.00;;;;;;4104863;28;113639;-59
2022/07/01 08:52:04;;;;;;;8.23;2.05;;;25.70;51.50;;;;;;4124173;28;114098;-59
2022/07/01 08:54:07;;;;;;;7.00;1.70;;;26.20;50.90;;;;;;4101024;28;113362;-59
2022/07/01 08:58:31;;;;;;;7.07;1.63;;;26.90;49.50;;;;;;4086296;28;113994;-59
2022/07/01 09:00:34;;;;;;;9.60;2.22;;;27.20;49.70;;;;;;4122072;28;113371;-60
2022/07/01 09:02:56;;;;;;;5.97;1.70;;;27.30;48.10;;;;;;4134276;28;114356;-60
2022/07/01 09:05:05;;;;;;;7.75;1.50;;;27.20;43.00;;;;;;4121877;28;113450;-59
2022/07/01 09:07:10;;;;;;;6.47;1.75;;;27.10;45.30;;;;;;4127465;28;113292;-59
2022/07/01 09:09:15;;;;;;;8.02;2.00;;;27.00;46.90;;;;;;4130693;28;113502;-60
2022/07/01 09:11:20;;;;;;;7.35;1.92;;;26.90;46.50;;;;;;4118219;28;113833;-60
2022/07/01 09:13:23;;;;;;;7.90;2.00;;;27.10;46.40;;;;;;4096396;28;113906;-59
2022/07/01 09:15:29;;;;;;;6.88;1.90;;;27.40;47.20;;;;;;4104630;28;114267;-60
2022/07/01 09:17:39;;;;;;;5.85;1.90;;;27.80;46.90;;;;;;4126237;28;113820;-60
2022/07/01 09:19:51;;;;;;;7.47;1.75;;;28.40;44.50;;;;;;4128378;28;115172;-61
2022/07/01 09:21:57;;;;;;;5.68;1.90;;;28.80;43.70;;;;;;4127461;28;113308;-60
2022/07/01 09:24:04;;;;;;;5.95;1.90;;;29.00;44.70;;;;;;4126832;28;113237;-60
2022/07/01 09:26:07;;;;;;;5.85;2.08;;;29.50;42.80;;;;;;4136846;28;113370;-60
2022/07/01 09:28:13;;;;;;;5.93;2.03;;;29.70;42.40;;;;;;4141068;28;113571;-60
2022/07/01 09:30:16;;;;;;;9.40;1.90;;;29.80;41.50;;;;;;4136235;28;113298;-60
2022/07/01 09:32:21;;;;;;;6.90;1.95;;;29.80;41.20;;;;;;4131250;28;113312;-60
2022/07/01 09:34:25;;;;;;;5.15;1.63;;;29.80;40.90;;;;;;4136247;28;113609;-60
2022/07/01 09:36:29;;;;;;;7.40;2.00;;;30.00;41.40;;;;;;4136937;28;113821;-60
2022/07/01 09:38:32;;;;;;;12.30;2.75;;;30.00;40.10;;;;;;4132891;28;113567;-60
2022/07/01 09:40:50;;;;;;;6.88;2.22;;;29.90;39.80;;;;;;4137321;28;113242;-60
2022/07/01 09:42:53;;;;;;;4.63;1.48;;;29.70;38.90;;;;;;4141731;28;113608;-61
2022/07/01 09:44:57;;;;;;;11.55;1.92;;;29.40;40.00;;;;;;4132255;28;113163;-60
2022/07/01 09:47:08;;;;;;;6.00;1.50;;;29.00;40.10;;;;;;4123661;28;114895;-60
2022/07/01 09:49:11;;;;;;;6.32;1.65;;;28.70;39.80;;;;;;4128837;28;113557;-60
2022/07/01 09:51:16;;;;;;;6.60;1.95;;;28.70;40.40;;;;;;4125833;28;113527;-60
2022/07/01 09:53:21;;;;;;;5.35;1.58;;;28.50;40.10;;;;;;4122187;28;113520;-60
2022/07/01 09:55:25;;;;;;;8.52;1.80;;;27.60;40.00;;;;;;4121249;28;113608;-60
2022/07/01 09:57:28;;;;;;;6.13;1.48;;;26.90;41.00;;;;;;4120136;28;114425;-60
2022/07/01 09:59:31;;;;;;;5.75;1.80;;;26.30;42.10;;;;;;4130868;28;114477;-60
2022/07/01 10:01:36;;;;;;;8.80;1.67;;;25.80;43.20;;;;;;4130859;28;114165;-60
2022/07/01 10:03:40;;;;;;;7.07;2.40;;;25.30;44.20;;;;;;4126030;28;114133;-61
2022/07/01 10:05:48;;;;;;;7.35;2.15;;;24.90;45.10;;;;;;4130690;28;113512;-61
2022/07/01 10:08:04;;;;;;;8.48;2.63;;;24.40;46.20;;;;;;4109998;28;114280;-61
2022/07/01 10:10:24;;;;;;;7.00;2.20;;;24.20;47.60;;;;;;4126004;28;115030;-60
2022/07/01 10:12:34;;;;;;;9.57;2.15;;;23.80;48.50;;;;;;4133720;28;113508;-61
2022/07/01 10:14:39;;;;;;;7.30;1.95;;;23.50;48.50;;;;;;4115797;28;113296;-60
2022/07/01 10:16:48;;;;;;;8.77;1.75;;;23.20;49.30;;;;;;4121791;28;113986;-60
2022/07/01 10:18:52;;;;;;;11.23;2.00;;;22.90;49.50;;;;;;4124652;28;113573;-60
2022/07/01 10:20:57;;;;;;;6.15;2.15;;;22.60;49.90;;;;;;4125484;28;113836;-60
2022/07/01 10:23:03;;;;;;;4.13;1.58;;;22.30;50.40;;;;;;4123551;28;113193;-60
2022/07/01 10:25:33;;;;;;;10.88;2.20;;;22.00;50.80;;;;;;4109718;28;114381;-60
2022/07/01 10:27:37;;;;;;;4.82;2.03;;;21.70;51.60;;;;;;4120238;28;113365;-60
2022/07/01 10:29:42;;;;;;;3.97;1.42;;;21.40;51.60;;;;;;4128551;28;114849;-60
2022/07/01 10:31:46;;;;;;;9.18;2.03;;;21.20;51.90;;;;;;4096795;28;113181;-60
2022/07/01 10:33:50;;;;;;;6.38;2.00;;;21.10;51.90;;;;;;4094362;28;113794;-60
2022/07/01 10:35:54;;;;;;;7.07;2.05;;;21.00;52.80;;;;;;4099570;28;114238;-61
2022/07/01 10:37:58;;;;;;;3.92;2.00;;;21.30;53.10;;;;;;4099730;28;114535;-61
2022/07/01 10:40:02;;;;;;;4.50;1.77;;;21.80;53.20;;;;;;4099665;28;113337;-60
2022/07/01 10:42:08;;;;;;;6.10;2.00;;;22.00;52.70;;;;;;4093797;28;114232;-61
2022/07/01 10:44:21;;;;;;;5.60;1.77;;;22.10;52.20;;;;;;4085447;28;114588;-60
2022/07/01 10:46:44;;;;;;;7.18;2.10;;;22.10;52.30;;;;;;4093690;28;114190;-60
2022/07/01 10:48:50;;;;;;;5.95;1.80;;;22.10;52.50;;;;;;4094520;28;114546;-61
2022/07/01 10:50:54;;;;;;;7.70;1.70;;;22.20;52.30;;;;;;4086562;28;113492;-60